Time,TemperatureF,DewpointF,PressureIn,WindDirection,WindDirectionDegrees,WindSpeedMPH,WindSpeedGustMPH,Humidity,HourlyPrecipIn,Conditions,Clouds,dailyrainin,SoftwareType,DateUTC
2013-01-23 00:02:00,58.0,19.0,-100.00,ESE,104,7.0,12.0,22,-99.99,,,-99.99,,2013-01-23 08:02:00,
2013-01-23 00:12:00,59.0,20.0,-100.00,ESE,103,7.0,11.0,22,-99.99,,,-99.99,,2013-01-23 08:12:00,
2013-01-23 00:22:00,59.0,20.0,-100.00,ESE,107,7.0,11.0,22,-99.99,,,-99.99,,2013-01-23 08:22:00,
2013-01-23 00:32:00,59.0,21.0,-100.00,ESE,103,7.0,11.0,23,-99.99,,,-99.99,,2013-01-23 08:32:00,
2013-01-23 00:42:00,58.0,20.0,-100.00,East,101,7.0,10.0,23,-99.99,,,-99.99,,2013-01-23 08:42:00,
2013-01-23 00:52:00,58.0,20.0,-100.00,East,101,7.0,10.0,23,-99.99,,,-99.99,,2013-01-23 08:52:00,
2013-01-23 01:02:00,58.0,20.0,-100.00,East,101,7.0,10.0,23,-99.99,,,-99.99,,2013-01-23 09:02:00,
2013-01-23 01:12:00,58.0,19.0,-100.00,East,101,7.0,10.0,22,-99.99,,,-99.99,,2013-01-23 09:12:00,
2013-01-23 01:22:00,58.0,20.0,-100.00,ESE,102,7.0,9.0,23,-99.99,,,-99.99,,2013-01-23 09:22:00,
2013-01-23 01:32:00,58.0,21.0,-100.00,ESE,102,7.0,9.0,24,-99.99,,,-99.99,,2013-01-23 09:32:00,
2013-01-23 01:43:00,59.0,22.0,-100.00,ESE,105,7.0,10.0,24,-99.99,,,-99.99,,2013-01-23 09:43:00,
2013-01-23 01:52:00,59.0,22.0,-100.00,ESE,105,7.0,10.0,24,-99.99,,,-99.99,,2013-01-23 09:52:00,
2013-01-23 02:02:00,59.0,22.0,-100.00,East,101,7.0,10.0,24,-99.99,,,-99.99,,2013-01-23 10:02:00,
2013-01-23 02:12:00,59.0,22.0,-100.00,ESE,106,7.0,12.0,24,-99.99,,,-99.99,,2013-01-23 10:12:00,
2013-01-23 02:22:00,59.0,22.0,-100.00,ESE,107,8.0,11.0,24,-99.99,,,-99.99,,2013-01-23 10:22:00,
2013-01-23 02:32:00,59.0,21.0,-100.00,ESE,105,9.0,13.0,23,-99.99,,,-99.99,,2013-01-23 10:32:00,
2013-01-23 02:42:00,59.0,19.0,-100.00,East,98,8.0,15.0,21,-99.99,,,-99.99,,2013-01-23 10:42:00,
2013-01-23 02:52:00,58.0,17.0,-100.00,East,95,10.0,17.0,20,-99.99,,,-99.99,,2013-01-23 10:52:00,
2013-01-23 03:02:00,58.0,17.0,-100.00,East,95,10.0,17.0,20,-99.99,,,-99.99,,2013-01-23 11:02:00,
2013-01-23 03:12:00,58.0,17.0,-100.00,East,95,10.0,16.0,20,-99.99,,,-99.99,,2013-01-23 11:12:00,
2013-01-23 03:22:00,59.0,19.0,-100.00,East,92,9.0,16.0,21,-99.99,,,-99.99,,2013-01-23 11:22:00,
2013-01-23 03:32:00,59.0,18.0,-100.00,East,86,9.0,15.0,20,-99.99,,,-99.99,,2013-01-23 11:32:00,
2013-01-23 03:42:00,58.0,17.0,-100.00,East,87,9.0,13.0,20,-99.99,,,-99.99,,2013-01-23 11:42:00,
2013-01-23 03:52:00,58.0,17.0,-100.00,East,84,9.0,14.0,20,-99.99,,,-99.99,,2013-01-23 11:52:00,
2013-01-23 04:02:00,58.0,17.0,-100.00,East,84,9.0,14.0,20,-99.99,,,-99.99,,2013-01-23 12:02:00,
2013-01-23 04:12:00,58.0,17.0,-100.00,East,84,9.0,16.0,20,-99.99,,,-99.99,,2013-01-23 12:12:00,
2013-01-23 04:22:00,58.0,17.0,-100.00,East,85,9.0,15.0,20,-99.99,,,-99.99,,2013-01-23 12:22:00,
2013-01-23 04:32:00,58.0,17.0,-100.00,East,82,9.0,14.0,20,-99.99,,,-99.99,,2013-01-23 12:32:00,
2013-01-23 04:42:00,58.0,17.0,-100.00,East,80,8.0,14.0,20,-99.99,,,-99.99,,2013-01-23 12:42:00,
2013-01-23 04:52:00,58.0,17.0,-100.00,East,82,9.0,16.0,20,-99.99,,,-99.99,,2013-01-23 12:52:00,
2013-01-23 05:03:00,58.0,17.0,-100.00,East,88,7.0,12.0,20,-99.99,,,-99.99,,2013-01-23 13:03:00,
2013-01-23 05:12:00,58.0,17.0,-100.00,East,79,8.0,14.0,20,-99.99,,,-99.99,,2013-01-23 13:12:00,
2013-01-23 05:22:00,59.0,18.0,-100.00,ENE,76,7.0,13.0,20,-99.99,,,-99.99,,2013-01-23 13:22:00,
2013-01-23 05:33:00,59.0,21.0,-100.00,ENE,60,7.0,11.0,23,-99.99,,,-99.99,,2013-01-23 13:33:00,
2013-01-23 05:42:00,59.0,21.0,-100.00,ENE,60,7.0,11.0,23,-99.99,,,-99.99,,2013-01-23 13:42:00,
2013-01-23 05:52:00,59.0,21.0,-100.00,ENE,58,7.0,12.0,23,-99.99,,,-99.99,,2013-01-23 13:52:00,
2013-01-23 06:02:00,59.0,21.0,-100.00,ENE,61,7.0,14.0,23,-99.99,,,-99.99,,2013-01-23 14:02:00,
2013-01-23 06:12:00,59.0,21.0,-100.00,NE,49,7.0,13.0,23,-99.99,,,-99.99,,2013-01-23 14:12:00,
2013-01-23 06:23:00,59.0,21.0,-100.00,NE,46,9.0,14.0,23,-99.99,,,-99.99,,2013-01-23 14:23:00,
2013-01-23 06:33:00,59.0,21.0,-100.00,NE,53,9.0,15.0,23,-99.99,,,-99.99,,2013-01-23 14:33:00,
2013-01-23 06:42:00,59.0,21.0,-100.00,NE,54,8.0,12.0,23,-99.99,,,-99.99,,2013-01-23 14:42:00,
2013-01-23 06:53:00,59.0,20.0,-100.00,ENE,62,8.0,14.0,22,-99.99,,,-99.99,,2013-01-23 14:53:00,
2013-01-23 07:02:00,59.0,20.0,-100.00,ENE,69,8.0,14.0,22,-99.99,,,-99.99,,2013-01-23 15:02:00,
2013-01-23 07:12:00,59.0,19.0,-100.00,ENE,69,8.0,13.0,21,-99.99,,,-99.99,,2013-01-23 15:12:00,
2013-01-23 07:22:00,58.0,18.0,-100.00,ENE,75,9.0,14.0,21,-99.99,,,-99.99,,2013-01-23 15:22:00,
2013-01-23 07:33:00,58.0,17.0,-100.00,East,80,8.0,14.0,20,-99.99,,,-99.99,,2013-01-23 15:33:00,
2013-01-23 07:43:00,58.0,17.0,-100.00,East,81,9.0,15.0,20,-99.99,,,-99.99,,2013-01-23 15:43:00,
2013-01-23 07:52:00,58.0,16.0,-100.00,ENE,75,8.0,14.0,19,-99.99,,,-99.99,,2013-01-23 15:52:00,
2013-01-23 08:02:00,58.0,16.0,-100.00,ENE,74,7.0,13.0,19,-99.99,,,-99.99,,2013-01-23 16:02:00,
2013-01-23 08:12:00,58.0,17.0,-100.00,ENE,69,6.0,11.0,20,-99.99,,,-99.99,,2013-01-23 16:12:00,
2013-01-23 08:22:00,58.0,18.0,-100.00,ENE,68,7.0,12.0,21,-99.99,,,-99.99,,2013-01-23 16:22:00,
2013-01-23 08:32:00,58.0,18.0,-100.00,ENE,67,5.0,10.0,21,-99.99,,,-99.99,,2013-01-23 16:32:00,
2013-01-23 08:42:00,58.0,18.0,-100.00,ENE,67,5.0,10.0,21,-99.99,,,-99.99,,2013-01-23 16:42:00,
2013-01-23 08:52:00,59.0,20.0,-100.00,ENE,66,4.0,9.0,22,-99.99,,,-99.99,,2013-01-23 16:52:00,
2013-01-23 09:02:00,60.0,22.0,-100.00,NE,55,6.0,10.0,23,-99.99,,,-99.99,,2013-01-23 17:02:00,
2013-01-23 09:12:00,61.0,25.0,-100.00,NE,45,5.0,9.0,25,-99.99,,,-99.99,,2013-01-23 17:12:00,
2013-01-23 09:22:00,63.0,27.0,-100.00,NE,41,4.0,9.0,25,-99.99,,,-99.99,,2013-01-23 17:22:00,
2013-01-23 09:33:00,63.0,27.0,-100.00,NE,46,5.0,11.0,25,-99.99,,,-99.99,,2013-01-23 17:33:00,
2013-01-23 09:42:00,63.0,27.0,-100.00,NE,48,5.0,11.0,25,-99.99,,,-99.99,,2013-01-23 17:42:00,
2013-01-23 09:52:00,62.0,26.0,-100.00,NE,39,5.0,11.0,25,-99.99,,,-99.99,,2013-01-23 17:52:00,
2013-01-23 10:03:00,63.0,26.0,-100.00,NE,38,6.0,10.0,24,-99.99,,,-99.99,,2013-01-23 18:03:00,
2013-01-23 10:12:00,62.0,24.0,-100.00,NE,42,5.0,11.0,23,-99.99,,,-99.99,,2013-01-23 18:12:00,
2013-01-23 10:22:00,63.0,24.0,-100.00,NE,45,6.0,14.0,22,-99.99,,,-99.99,,2013-01-23 18:22:00,
2013-01-23 10:32:00,64.0,23.0,-100.00,ENE,62,7.0,13.0,21,-99.99,,,-99.99,,2013-01-23 18:32:00,
2013-01-23 10:43:00,63.0,22.0,-100.00,NE,35,7.0,13.0,21,-99.99,,,-99.99,,2013-01-23 18:43:00,
2013-01-23 10:52:00,63.0,22.0,-100.00,NE,35,6.0,11.0,21,-99.99,,,-99.99,,2013-01-23 18:52:00,
2013-01-23 11:02:00,63.0,21.0,-100.00,NNE,29,8.0,16.0,20,-99.99,,,-99.99,,2013-01-23 19:02:00,
2013-01-23 11:12:00,61.0,18.0,-100.00,NNE,33,10.0,15.0,19,-99.99,,,-99.99,,2013-01-23 19:12:00,
2013-01-23 11:22:00,61.0,18.0,-100.00,NE,41,11.0,17.0,19,-99.99,,,-99.99,,2013-01-23 19:22:00,
2013-01-23 11:32:00,62.0,19.0,-100.00,NE,45,9.0,16.0,19,-99.99,,,-99.99,,2013-01-23 19:32:00,
2013-01-23 11:42:00,63.0,21.0,-100.00,NE,51,8.0,13.0,20,-99.99,,,-99.99,,2013-01-23 19:42:00,
2013-01-23 11:52:00,63.0,22.0,-100.00,NE,49,7.0,13.0,21,-99.99,,,-99.99,,2013-01-23 19:52:00,
2013-01-23 12:02:00,63.0,22.0,-100.00,NE,43,8.0,16.0,21,-99.99,,,-99.99,,2013-01-23 20:02:00,
2013-01-23 12:12:00,63.0,22.0,-100.00,NE,51,8.0,15.0,21,-99.99,,,-99.99,,2013-01-23 20:12:00,
2013-01-23 12:22:00,63.0,22.0,-100.00,NE,53,7.0,14.0,21,-99.99,,,-99.99,,2013-01-23 20:22:00,
2013-01-23 12:32:00,63.0,22.0,-100.00,ENE,60,5.0,11.0,21,-99.99,,,-99.99,,2013-01-23 20:32:00,
2013-01-23 12:42:00,63.0,22.0,-100.00,ENE,60,5.0,11.0,21,-99.99,,,-99.99,,2013-01-23 20:42:00,
2013-01-23 12:53:00,63.0,21.0,-100.00,ENE,59,5.0,9.0,20,-99.99,,,-99.99,,2013-01-23 20:53:00,
2013-01-23 13:02:00,63.0,21.0,-100.00,ENE,57,5.0,9.0,20,-99.99,,,-99.99,,2013-01-23 21:02:00,
2013-01-23 13:12:00,64.0,24.0,-100.00,ESE,103,5.0,9.0,22,-99.99,,,-99.99,,2013-01-23 21:12:00,
2013-01-23 13:22:00,64.0,24.0,-100.00,East,87,3.0,9.0,22,-99.99,,,-99.99,,2013-01-23 21:22:00,
2013-01-23 13:33:00,65.0,26.0,-100.00,ESE,122,2.0,4.0,23,-99.99,,,-99.99,,2013-01-23 21:33:00,
2013-01-23 13:42:00,65.0,28.0,-100.00,NW,323,2.0,6.0,25,-99.99,,,-99.99,,2013-01-23 21:42:00,
2013-01-23 13:52:00,65.0,32.0,-100.00,WSW,243,2.0,6.0,29,-99.99,,,-99.99,,2013-01-23 21:52:00,
2013-01-23 14:02:00,65.0,34.0,-100.00,West,263,1.0,6.0,31,-99.99,,,-99.99,,2013-01-23 22:02:00,
2013-01-23 14:12:00,63.0,33.0,-100.00,WNW,296,2.0,5.0,32,-99.99,,,-99.99,,2013-01-23 22:12:00,
2013-01-23 14:22:00,63.0,33.0,-100.00,WNW,298,1.0,4.0,33,-99.99,,,-99.99,,2013-01-23 22:22:00,
2013-01-23 14:33:00,63.0,33.0,-100.00,West,273,1.0,4.0,33,-99.99,,,-99.99,,2013-01-23 22:33:00,
2013-01-23 14:42:00,63.0,33.0,-100.00,NW,309,1.0,3.0,33,-99.99,,,-99.99,,2013-01-23 22:42:00,
2013-01-23 14:52:00,64.0,33.0,-100.00,WNW,286,2.0,5.0,31,-99.99,,,-99.99,,2013-01-23 22:52:00,
2013-01-23 15:02:00,63.0,33.0,-100.00,WSW,251,1.0,3.0,32,-99.99,,,-99.99,,2013-01-23 23:02:00,
2013-01-23 15:12:00,63.0,33.0,-100.00,West,278,1.0,2.0,32,-99.99,,,-99.99,,2013-01-23 23:12:00,
2013-01-23 15:22:00,63.0,33.0,-100.00,NW,317,2.0,4.0,32,-99.99,,,-99.99,,2013-01-23 23:22:00,
2013-01-23 15:33:00,63.0,33.0,-100.00,WNW,289,1.0,4.0,32,-99.99,,,-99.99,,2013-01-23 23:33:00,
2013-01-23 15:42:00,63.0,33.0,-100.00,NW,314,1.0,4.0,33,-99.99,,,-99.99,,2013-01-23 23:42:00,
2013-01-23 15:52:00,62.0,33.0,-100.00,WNW,303,1.0,5.0,33,-99.99,,,-99.99,,2013-01-23 23:52:00,
2013-01-23 16:02:00,62.0,33.0,-100.00,West,279,1.0,5.0,33,-99.99,,,-99.99,,2013-01-24 00:02:00,
2013-01-23 16:12:00,61.0,32.0,-100.00,WSW,246,1.0,4.0,34,-99.99,,,-99.99,,2013-01-24 00:12:00,
2013-01-23 16:22:00,61.0,32.0,-100.00,NW,315,1.0,3.0,34,-99.99,,,-99.99,,2013-01-24 00:22:00,
2013-01-23 16:32:00,60.0,32.0,-100.00,NNW,333,1.0,4.0,34,-99.99,,,-99.99,,2013-01-24 00:32:00,
2013-01-23 16:42:00,60.0,32.0,-100.00,NW,313,1.0,2.0,34,-99.99,,,-99.99,,2013-01-24 00:42:00,
2013-01-23 16:52:00,60.0,32.0,-100.00,West,280,1.0,1.0,35,-99.99,,,-99.99,,2013-01-24 00:52:00,
2013-01-23 17:02:00,59.0,31.0,-100.00,WNW,296,1.0,2.0,35,-99.99,,,-99.99,,2013-01-24 01:02:00,
2013-01-23 17:12:00,58.0,31.0,-100.00,WSW,253,1.0,4.0,35,-99.99,,,-99.99,,2013-01-24 01:12:00,
2013-01-23 17:22:00,58.0,31.0,-100.00,WSW,244,1.0,3.0,36,-99.99,,,-99.99,,2013-01-24 01:22:00,
2013-01-23 17:32:00,57.0,31.0,-100.00,WSW,243,1.0,2.0,37,-99.99,,,-99.99,,2013-01-24 01:32:00,
2013-01-23 17:42:00,56.0,30.0,-100.00,SW,230,1.0,3.0,37,-99.99,,,-99.99,,2013-01-24 01:42:00,
2013-01-23 17:52:00,56.0,30.0,-100.00,SW,227,1.0,2.0,37,-99.99,,,-99.99,,2013-01-24 01:52:00,
2013-01-23 18:02:00,55.0,30.0,-100.00,East,85,1.0,1.0,38,-99.99,,,-99.99,,2013-01-24 02:02:00,
2013-01-23 18:12:00,55.0,31.0,-100.00,NNW,336,1.0,1.0,40,-99.99,,,-99.99,,2013-01-24 02:12:00,
2013-01-23 18:22:00,54.0,31.0,-100.00,ENE,64,1.0,1.0,42,-99.99,,,-99.99,,2013-01-24 02:22:00,
2013-01-23 18:32:00,54.0,30.0,-100.00,NNE,25,1.0,1.0,39,-99.99,,,-99.99,,2013-01-24 02:32:00,
2013-01-23 18:42:00,54.0,30.0,-100.00,NNE,25,1.0,1.0,39,-99.99,,,-99.99,,2013-01-24 02:42:00,
2013-01-23 18:52:00,54.0,30.0,-100.00,NNE,25,1.0,1.0,39,-99.99,,,-99.99,,2013-01-24 02:52:00,
2013-01-23 19:02:00,54.0,28.0,-100.00,East,91,1.0,3.0,37,-99.99,,,-99.99,,2013-01-24 03:02:00,
2013-01-23 19:12:00,54.0,28.0,-100.00,SE,126,1.0,2.0,37,-99.99,,,-99.99,,2013-01-24 03:12:00,
2013-01-23 19:22:00,54.0,29.0,-100.00,ESE,110,1.0,2.0,38,-99.99,,,-99.99,,2013-01-24 03:22:00,
2013-01-23 19:32:00,54.0,29.0,-100.00,ESE,120,1.0,2.0,38,-99.99,,,-99.99,,2013-01-24 03:32:00,
2013-01-23 19:42:00,54.0,28.0,-100.00,ESE,116,2.0,4.0,37,-99.99,,,-99.99,,2013-01-24 03:42:00,
2013-01-23 19:52:00,53.0,29.0,-100.00,ENE,71,1.0,3.0,39,-99.99,,,-99.99,,2013-01-24 03:52:00,
2013-01-23 20:02:00,53.0,28.0,-100.00,SE,128,1.0,2.0,38,-99.99,,,-99.99,,2013-01-24 04:02:00,
2013-01-23 20:12:00,53.0,29.0,-100.00,ENE,75,1.0,2.0,39,-99.99,,,-99.99,,2013-01-24 04:12:00,
2013-01-23 20:22:00,54.0,29.0,-100.00,SSW,199,1.0,2.0,38,-99.99,,,-99.99,,2013-01-24 04:22:00,
2013-01-23 20:32:00,54.0,30.0,-100.00,ESE,109,1.0,2.0,39,-99.99,,,-99.99,,2013-01-24 04:32:00,
2013-01-23 20:42:00,54.0,30.0,-100.00,SSW,213,2.0,5.0,39,-99.99,,,-99.99,,2013-01-24 04:42:00,
2013-01-23 20:52:00,55.0,31.0,-100.00,SW,217,3.0,6.0,39,-99.99,,,-99.99,,2013-01-24 04:52:00,
2013-01-23 21:03:00,54.0,30.0,-100.00,SW,221,3.0,6.0,40,-99.99,,,-99.99,,2013-01-24 05:03:00,
2013-01-23 21:12:00,54.0,30.0,-100.00,SW,227,3.0,6.0,40,-99.99,,,-99.99,,2013-01-24 05:12:00,
2013-01-23 21:22:00,54.0,30.0,-100.00,SW,218,2.0,5.0,40,-99.99,,,-99.99,,2013-01-24 05:22:00,
2013-01-23 21:32:00,54.0,30.0,-100.00,SW,215,2.0,5.0,39,-99.99,,,-99.99,,2013-01-24 05:32:00,
2013-01-23 21:42:00,56.0,31.0,-100.00,South,178,3.0,8.0,38,-99.99,,,-99.99,,2013-01-24 05:42:00,
2013-01-23 21:52:00,57.0,31.0,-100.00,South,169,4.0,9.0,37,-99.99,,,-99.99,,2013-01-24 05:52:00,
2013-01-23 22:02:00,58.0,32.0,-100.00,South,170,4.0,10.0,37,-99.99,,,-99.99,,2013-01-24 06:02:00,
2013-01-23 22:12:00,58.0,31.0,-100.00,South,172,3.0,8.0,36,-99.99,,,-99.99,,2013-01-24 06:12:00,
2013-01-23 22:22:00,58.0,32.0,-100.00,South,189,4.0,10.0,37,-99.99,,,-99.99,,2013-01-24 06:22:00,
2013-01-23 22:32:00,58.0,33.0,-100.00,South,174,4.0,10.0,38,-99.99,,,-99.99,,2013-01-24 06:32:00,
2013-01-23 22:42:00,58.0,31.0,-100.00,South,177,5.0,12.0,36,-99.99,,,-99.99,,2013-01-24 06:42:00,
2013-01-23 22:52:00,58.0,31.0,-100.00,SSE,157,5.0,14.0,36,-99.99,,,-99.99,,2013-01-24 06:52:00,
2013-01-23 23:02:00,58.0,32.0,-100.00,SSE,151,4.0,10.0,37,-99.99,,,-99.99,,2013-01-24 07:02:00,
2013-01-23 23:12:00,58.0,33.0,-100.00,SSE,159,5.0,10.0,38,-99.99,,,-99.99,,2013-01-24 07:12:00,
2013-01-23 23:22:00,58.0,33.0,-100.00,SSE,148,3.0,8.0,38,-99.99,,,-99.99,,2013-01-24 07:22:00,
2013-01-23 23:32:00,57.0,33.0,-100.00,SSE,159,3.0,7.0,40,-99.99,,,-99.99,,2013-01-24 07:32:00,
2013-01-23 23:42:00,57.0,34.0,-100.00,SSW,211,3.0,5.0,42,-99.99,,,-99.99,,2013-01-24 07:42:00,
2013-01-23 23:52:00,56.0,33.0,-100.00,SW,221,3.0,7.0,42,-99.99,,,-99.99,,2013-01-24 07:52:00,